Latest Weather Observations for Red Rocks Point

IDW60801

Issued at 10:05 pm WST Saturday 30 August 2014 (issued every 30 minutes, with the page automatically refreshed every 10 minutes)

About weather observations | Map of weather stations | Latest weather observations for WA | Other Formats
Station Details ID: 011053 Name: RED ROCKS POINT Lat: -32.20 Lon: 127.53 Height: 3.1 m
Data from the previous 72 hours. | See also: Recent months for locations in Western Australia
Date/Time
WST
Temp
°C
App
Temp
°C
Dew
Point
Rel
Hum
%
Delta-T
°C
Wind Press
QNH
hPa
Press
MSL
hPa
Rain
since 9 am
mm
Dir
 
Spd
km/h
Gust
km/h
Spd
kts
Gust
kts
30/10:00pm 15.8 16.0 14.2 90 0.9 ENE 6 11 3 6 1015.9 - 0.0
30/09:30pm 16.0 15.7 14.4 90 0.9 E 9 11 5 6 1015.4 - 0.0
30/09:00pm 16.1 17.2 14.5 90 0.9 SE 2 15 1 8 1015.2 1015.2 0.0
30/08:30pm 16.0 15.7 14.4 90 0.9 SE 9 11 5 6 1015.7 - 0.0
30/08:00pm 15.6 15.6 13.6 88 1.1 S 6 7 3 4 1016.2 - 0.0
30/07:30pm 16.1 15.7 14.1 88 1.1 SSE 9 11 5 6 1015.9 - 0.0
30/07:00pm 15.8 15.2 13.5 86 1.3 S 9 13 5 7 1016.0 - 0.0
30/06:30pm 15.9 14.4 13.2 84 1.5 SSW 13 15 7 8 1015.7 - 0.0
30/06:00pm 16.5 15.4 13.2 81 1.8 SSW 11 17 6 9 1015.2 1015.2 0.0
30/05:30pm 16.5 15.4 13.2 81 1.8 SSW 11 13 6 7 1014.7 - 0.0
30/05:00pm 16.8 16.5 13.3 80 2.0 S 7 11 4 6 1013.7 - 0.0
30/04:30pm 17.3 16.5 12.8 75 2.5 SSW 9 13 5 7 1013.4 - 0.0
30/04:00pm 17.5 16.1 13.4 77 2.3 SSW 13 19 7 10 1013.1 - 0.0
30/03:30pm 17.7 15.7 14.0 79 2.1 SW 17 26 9 14 1013.0 - 0.0
30/03:00pm 18.3 16.7 13.8 75 2.6 SW 15 20 8 11 1012.8 1012.8 0.0
30/02:30pm 19.1 17.0 13.5 70 3.2 SSW 17 22 9 12 1012.4 - 0.0
30/02:00pm 19.7 17.8 14.1 70 3.2 SSW 17 22 9 12 1012.5 - 0.0
30/01:30pm 20.1 17.7 12.6 62 4.2 SSW 17 24 9 13 1012.6 - 0.0
30/01:00pm 20.5 17.8 13.0 62 4.3 SSW 19 28 10 15 1012.6 - 0.0
30/12:30pm 20.4 18.7 13.6 65 3.9 S 15 19 8 10 1012.6 - 0.0
30/12:00pm 21.0 19.3 13.7 63 4.2 S 15 19 8 10 1012.8 1012.8 0.0
30/11:30am 19.8 18.6 14.0 69 3.3 S 13 15 7 8 1013.3 - 0.0
30/11:00am 19.9 18.6 13.8 68 3.5 S 13 17 7 9 1013.7 - 0.0
30/10:30am 20.6 19.4 14.0 66 3.8 S 13 17 7 9 1014.1 - 0.0
30/10:00am 20.1 18.8 13.8 67 3.6 S 13 15 7 8 1014.3 - 0.0
30/09:30am 18.8 17.5 13.6 72 3.0 S 13 15 7 8 1014.5 - 0.0
30/09:00am 20.1 19.4 13.3 65 3.9 SSW 9 13 5 7 1014.6 1014.6 0.0
30/08:30am 19.3 18.5 13.9 71 3.1 WSW 11 17 6 9 1015.0 - 0.0
30/08:00am 18.2 16.8 12.2 68 3.3 W 11 17 6 9 1015.0 - 0.0
30/07:30am 15.4 11.8 5.0 50 4.9 NW 13 17 7 9 1014.7 - 0.0
30/07:00am 13.2 8.2 -1.5 36 5.9 WNW 15 19 8 10 1014.6 - 0.0
30/06:30am 14.0 9.3 -4.7 27 7.0 NW 11 15 6 8 1013.9 - 0.0
30/06:00am 14.6 9.8 -6.3 23 7.6 NW 11 17 6 9 1013.8 1013.8 0.0
30/05:30am 15.3 9.3 -6.3 22 8.0 NNW 17 20 9 11 1013.4 - 0.0
30/05:00am 15.5 9.6 -6.1 22 8.0 NNW 17 22 9 12 1013.2 - 0.0
30/04:30am 15.3 9.4 -5.7 23 7.8 NNW 17 20 9 11 1012.9 - 0.0
30/04:00am 15.9 10.4 -5.8 22 8.1 NNW 15 19 8 10 1012.8 - 0.0
30/03:30am 16.7 11.9 -5.7 21 8.5 N 11 15 6 8 1012.6 - 0.0
30/03:00am 16.4 11.3 -5.3 22 8.3 NNW 13 20 7 11 1012.2 1012.2 0.0
30/02:30am 18.1 12.9 -5.9 19 9.2 WNW 13 22 7 12 1013.1 - 0.0
30/02:00am 20.2 14.2 -6.4 16 10.3 N 17 26 9 14 1012.4 - 0.0
30/01:30am 19.9 14.0 -5.8 17 10.1 NNW 17 22 9 12 1012.7 - 0.0
30/01:00am 18.5 13.0 -5.5 19 9.3 NNW 15 24 8 13 1013.1 - 0.0
30/12:30am 18.1 13.0 -5.2 20 9.1 N 13 19 7 10 1012.7 - 0.0
30/12:00am 19.0 13.5 -5.8 18 9.6 N 15 20 8 11 1012.9 1012.9 0.0
 
Date/Time
WST
Temp
°C
App
Temp
°C
Dew
Point
Rel
Hum
%
Delta-T
°C
Wind Press
QNH
hPa
Press
MSL
hPa
Rain
since 9 am
mm
Dir
 
Spd
km/h
Gust
km/h
Spd
kts
Gust
kts
29/11:30pm 19.0 13.5 -5.8 18 9.6 N 15 20 8 11 1012.9 - 0.0
29/11:00pm 18.9 13.3 -5.9 18 9.6 N 15 20 8 11 1013.2 - 0.0
29/10:30pm 18.4 12.9 -5.6 19 9.3 N 15 19 8 10 1013.5 - 0.0
29/10:00pm 18.3 13.1 -5.7 19 9.3 N 13 17 7 9 1013.6 - 0.0
29/09:30pm 18.9 13.7 -5.9 18 9.6 N 13 17 7 9 1013.9 - 0.0
29/09:00pm 19.6 14.8 -6.1 17 10.0 N 11 15 6 8 1014.2 1014.2 0.0
29/08:30pm 20.6 15.4 -6.1 16 10.5 N 13 17 7 9 1014.1 - 0.0
29/08:00pm 21.3 16.1 -6.3 15 10.9 N 13 17 7 9 1014.0 - 0.0
29/07:30pm 22.3 17.1 -6.5 14 11.4 N 13 17 7 9 1014.0 - 0.0
29/07:00pm 23.4 18.2 -6.5 13 12.0 N 13 17 7 9 1013.8 - 0.0
29/06:30pm 23.7 18.9 -6.3 13 12.1 N 11 15 6 8 1013.4 - 0.0
29/06:00pm 25.0 20.1 -7.5 11 13.0 N 11 17 6 9 1013.1 1013.1 0.0
29/05:30pm 27.3 21.9 -8.3 9 14.3 N 13 19 7 10 1012.7 - 0.0
29/05:00pm 30.0 23.9 -7.8 8 15.7 N 17 24 9 13 1012.5 - 0.0
29/04:30pm 31.3 25.1 -8.6 7 16.6 NNW 17 28 9 15 1012.2 - 0.0
29/04:00pm 32.2 25.1 -7.9 7 17.0 NW 22 37 12 20 1012.2 - 0.0
29/03:30pm 32.5 25.8 -7.7 7 17.1 NNW 20 35 11 19 1012.3 - 0.0
29/03:00pm 33.0 26.0 -7.3 7 17.4 NNW 22 33 12 18 1012.3 1012.3 0.0
29/02:30pm 32.6 25.3 -5.9 8 16.9 NNW 24 41 13 22 1012.7 - 0.0
29/02:00pm 32.3 25.4 -6.1 8 16.8 NW 22 35 12 19 1013.0 - 0.0
29/01:30pm 32.3 24.3 -6.1 8 16.8 NNW 28 39 15 21 1013.3 - 0.0
29/01:00pm 32.8 25.9 -5.7 8 17.0 NNW 22 33 12 18 1013.3 - 0.0
29/12:30pm 32.1 25.2 -6.3 8 16.7 NW 22 41 12 22 1013.9 - 0.0
29/12:00pm 30.9 24.4 -5.6 9 15.9 NNW 20 32 11 17 1014.6 1014.6 0.0
29/11:30am 29.8 22.5 -6.4 9 15.4 NNW 24 39 13 21 1015.1 - 0.0
29/11:00am 30.0 22.5 -4.9 10 15.3 NNW 26 41 14 22 1015.6 - 0.0
29/10:30am 28.8 20.4 -5.8 10 14.8 NNW 30 48 16 26 1015.8 - 0.0
29/10:28am 28.9 20.9 -5.7 10 14.8 NNW 28 48 15 26 1015.8 - 0.0
29/10:00am 26.8 20.4 -4.9 12 13.5 NNW 20 39 11 21 1016.2 - 0.0
29/09:30am 26.8 20.1 -3.9 13 13.3 NNW 22 33 12 18 1016.4 - 0.0
29/09:12am 25.6 17.7 -4.8 13 12.8 N 28 46 15 25 1016.6 - 0.0
29/09:00am 26.0 17.9 -3.5 14 12.8 N 30 44 16 24 1016.7 1016.7 0.0
29/08:30am 24.8 16.6 -3.6 15 12.2 N 30 43 16 23 1016.7 - 0.0
29/08:00am 23.9 17.3 -3.4 16 11.7 N 22 33 12 18 1016.5 - 0.0
29/07:30am 21.6 14.6 -3.7 18 10.5 N 24 37 13 20 1016.6 - 0.0
29/07:00am 21.1 13.6 -4.1 18 10.4 N 26 43 14 23 1016.5 - 0.0
29/06:30am 20.9 13.8 -4.3 18 10.3 N 24 41 13 22 1016.3 - 0.0
29/06:00am 20.8 13.2 -5.1 17 10.4 N 26 41 14 22 1016.4 1016.4 0.0
29/05:30am 20.6 13.8 -5.3 17 10.3 N 22 41 12 22 1016.4 - 0.0
29/05:00am 20.2 13.8 -4.8 18 10.0 N 20 33 11 18 1016.5 - 0.0
29/04:30am 20.0 13.6 -5.0 18 10.0 N 20 28 11 15 1016.4 - 0.0
29/04:00am 20.4 13.6 -4.7 18 10.1 N 22 32 12 17 1016.2 - 0.0
29/03:30am 20.4 14.0 -4.7 18 10.1 N 20 32 11 17 1016.1 - 0.0
29/03:00am 20.0 13.7 -4.3 19 9.8 N 20 28 11 15 1016.1 1016.1 0.0
29/02:30am 18.7 12.6 -4.0 21 9.1 N 19 26 10 14 1016.1 - 0.0
29/02:00am 18.3 12.5 -4.4 21 9.0 N 17 24 9 13 1016.3 - 0.0
29/01:30am 18.6 12.3 -4.1 21 9.1 N 20 30 11 16 1016.6 - 0.0
29/01:00am 18.6 12.5 -4.1 21 9.1 N 19 26 10 14 1016.9 - 0.0
29/12:30am 19.3 13.0 -4.2 20 9.5 N 20 28 11 15 1017.2 - 0.0
29/12:00am 20.1 13.4 -4.2 19 9.8 NNE 22 33 12 18 1017.4 1017.4 0.0
 
Date/Time
WST
Temp
°C
App
Temp
°C
Dew
Point
Rel
Hum
%
Delta-T
°C
Wind Press
QNH
hPa
Press
MSL
hPa
Rain
since 9 am
mm
Dir
 
Spd
km/h
Gust
km/h
Spd
kts
Gust
kts
28/11:30pm 19.9 13.6 -3.7 20 9.7 NNE 20 28 11 15 1017.4 - 0.0
28/11:00pm 19.4 13.2 -3.5 21 9.4 NNE 20 28 11 15 1017.6 - 0.0
28/10:30pm 19.2 13.2 -3.0 22 9.2 NNE 19 24 10 13 1017.7 - 0.0
28/10:00pm 19.6 13.4 -3.3 21 9.4 NNE 20 26 11 14 1017.8 - 0.0
28/09:30pm 19.9 13.8 -2.4 22 9.4 NNE 20 30 11 16 1017.9 - 0.0
28/09:00pm 18.7 12.7 -1.2 26 8.5 NNE 20 28 11 15 1017.9 1017.9 0.0
28/08:30pm 17.5 12.2 1.9 35 7.0 NNE 19 26 10 14 1018.0 - 0.0
28/08:00pm 15.1 13.8 12.6 85 1.4 NE 11 13 6 7 1018.1 - 0.0
28/07:30pm 16.0 14.0 13.8 87 1.2 ENE 17 20 9 11 1018.0 - 0.0
28/07:00pm 16.4 13.8 13.9 85 1.4 ENE 20 24 11 13 1017.8 - 0.0
28/06:30pm 16.5 13.9 13.8 84 1.5 ENE 20 24 11 13 1017.7 - 0.0
28/06:00pm 16.6 13.9 13.5 82 1.7 ENE 20 24 11 13 1017.4 1017.4 0.0
28/05:30pm 16.8 14.0 13.1 79 2.1 ENE 20 24 11 13 1017.2 - 0.0
28/05:00pm 17.3 14.4 12.8 75 2.5 ENE 20 26 11 14 1016.9 - 0.0
28/04:30pm 17.9 15.0 12.8 72 2.8 ENE 20 24 11 13 1016.9 - 0.0
28/04:00pm 18.5 15.7 12.7 69 3.2 ENE 19 24 10 13 1016.7 - 0.0
28/03:30pm 18.9 15.5 12.4 66 3.6 ENE 22 28 12 15 1016.7 - 0.0
28/03:00pm 19.3 15.8 12.3 64 3.9 E 22 32 12 17 1016.7 1016.7 0.0
28/02:30pm 20.0 16.7 11.5 58 4.7 E 20 28 11 15 1017.0 - 0.0
28/02:00pm 19.5 14.0 12.0 62 4.2 E 32 39 17 21 1017.0 - 0.0
28/01:30pm 20.0 15.6 11.7 59 4.6 ESE 26 35 14 19 1017.4 - 0.0
28/01:00pm 20.1 15.8 12.1 60 4.5 ESE 26 32 14 17 1017.6 - 0.0
28/12:40pm 24.2 19.9 9.4 39 8.0 E 22 35 12 19 1017.6 - 0.0
28/12:30pm 31.1 24.6 -5.5 9 16.0 N 20 35 11 19 1017.8 - 0.0
28/12:00pm 31.2 23.2 -5.4 9 16.0 NE 28 35 15 19 1018.4 1018.4 0.0
28/11:30am 30.7 22.8 -4.4 10 15.6 NNE 28 41 15 22 1018.9 - 0.0
28/11:00am 29.9 22.9 -3.7 11 15.0 NNE 24 37 13 20 1019.6 - 0.0
28/10:30am 29.4 23.2 -2.9 12 14.6 NNE 20 30 11 16 1020.4 - 0.0
28/10:00am 27.3 21.3 -1.6 15 13.1 NNE 20 28 11 15 1021.0 - 0.0
28/09:30am 25.1 20.1 1.3 21 11.2 NNE 17 30 9 16 1021.3 - 0.0
28/09:00am 22.3 16.3 1.3 25 9.7 N 22 30 12 16 1021.7 1021.7 0.0
28/08:30am 20.1 15.7 2.5 31 8.2 NNE 15 20 8 11 1021.9 - 0.0
28/08:00am 17.1 12.8 3.1 39 6.4 NNE 15 22 8 12 1022.0 - 0.0
28/07:30am 14.6 11.0 5.1 53 4.5 NE 13 17 7 9 1022.0 - 0.0
28/07:00am 12.3 9.1 5.0 61 3.4 NE 11 15 6 8 1022.1 - 0.0
28/06:30am 10.6 7.3 4.5 66 2.7 NE 11 15 6 8 1022.0 - 0.0
28/06:00am 10.1 6.0 4.3 67 2.6 NE 15 17 8 9 1021.9 1021.9 0.0
28/05:30am 9.9 5.5 4.5 69 2.4 NE 17 20 9 11 1021.7 - 0.0
28/05:00am 8.8 4.4 4.6 75 1.9 NE 17 19 9 10 1021.7 - 0.0
28/04:30am 9.0 6.3 5.4 78 1.6 NE 9 11 5 6 1021.8 - 0.0
28/04:00am 9.4 6.8 6.1 80 1.5 NNE 9 11 5 6 1021.7 - 0.0
28/03:30am 9.6 6.8 7.0 84 1.2 NNE 11 13 6 7 1021.6 - 0.0
28/03:00am 10.4 7.5 8.0 85 1.2 NNE 13 17 7 9 1021.7 1021.7 0.0
28/02:30am 10.6 7.4 8.5 87 1.0 NE 15 17 8 9 1021.6 - 0.0
28/02:00am 10.9 8.2 8.8 87 1.0 NNE 13 17 7 9 1021.9 - 0.0
28/01:30am 10.6 8.1 8.0 84 1.3 NE 11 15 6 8 1022.2 - 0.0
28/01:00am 11.2 8.6 7.9 80 1.6 NE 11 13 6 7 1022.2 - 0.0
28/12:30am 12.1 9.2 8.2 77 1.9 NE 13 17 7 9 1022.3 - 0.0
28/12:00am 12.9 10.1 8.4 74 2.2 NE 13 17 7 9 1022.3 1022.3 0.0
 
Date/Time
WST
Temp
°C
App
Temp
°C
Dew
Point
Rel
Hum
%
Delta-T
°C
Wind Press
QNH
hPa
Press
MSL
hPa
Rain
since 9 am
mm
Dir
 
Spd
km/h
Gust
km/h
Spd
kts
Gust
kts
27/11:30pm 13.3 9.8 8.6 73 2.4 NE 17 22 9 12 1022.6 - 0.0
27/11:00pm 13.2 9.6 8.5 73 2.3 NE 17 20 9 11 1022.6 - 0.0
27/10:30pm 13.1 9.5 8.4 73 2.3 NE 17 20 9 11 1022.8 - 0.0

Other Formats:

Comma delimited format used in spreadsheet applications
http://www.bom.gov.au/fwo/IDW60801/IDW60801.94644.axf

JavaScript Object Notation format (JSON) in row-major order
http://www.bom.gov.au/fwo/IDW60801/IDW60801.94644.json